sensor_id;sensor_type;location;lat;lon;timestamp;temperature;humidity
49549;DHT22;35450;44.518;7.466;2022-11-20T00:00:21;8.50;76.20
49549;DHT22;35450;44.518;7.466;2022-11-20T00:03:25;8.50;75.90
49549;DHT22;35450;44.518;7.466;2022-11-20T00:06:29;8.50;76.00
49549;DHT22;35450;44.518;7.466;2022-11-20T00:09:33;8.50;76.90
49549;DHT22;35450;44.518;7.466;2022-11-20T00:12:37;8.50;77.60
49549;DHT22;35450;44.518;7.466;2022-11-20T00:15:41;8.40;77.20
49549;DHT22;35450;44.518;7.466;2022-11-20T00:18:45;8.30;78.70
49549;DHT22;35450;44.518;7.466;2022-11-20T00:21:49;8.20;78.70
49549;DHT22;35450;44.518;7.466;2022-11-20T00:24:55;8.10;78.20
49549;DHT22;35450;44.518;7.466;2022-11-20T00:28:00;8.20;78.60
49549;DHT22;35450;44.518;7.466;2022-11-20T00:31:12;8.20;78.80
49549;DHT22;35450;44.518;7.466;2022-11-20T00:34:17;8.10;78.50
49549;DHT22;35450;44.518;7.466;2022-11-20T00:37:21;8.10;78.20
49549;DHT22;35450;44.518;7.466;2022-11-20T00:40:25;8.10;78.40
49549;DHT22;35450;44.518;7.466;2022-11-20T00:43:29;8.10;78.60
49549;DHT22;35450;44.518;7.466;2022-11-20T00:46:33;8.10;79.10
49549;DHT22;35450;44.518;7.466;2022-11-20T00:49:38;8.00;78.90
49549;DHT22;35450;44.518;7.466;2022-11-20T00:52:42;8.00;78.90
49549;DHT22;35450;44.518;7.466;2022-11-20T00:56:03;7.90;78.70
49549;DHT22;35450;44.518;7.466;2022-11-20T00:59:09;7.90;78.20
49549;DHT22;35450;44.518;7.466;2022-11-20T01:02:13;7.90;77.70
49549;DHT22;35450;44.518;7.466;2022-11-20T01:05:19;7.90;77.90
49549;DHT22;35450;44.518;7.466;2022-11-20T01:08:23;7.90;77.90
49549;DHT22;35450;44.518;7.466;2022-11-20T01:11:33;7.90;77.40
49549;DHT22;35450;44.518;7.466;2022-11-20T01:14:37;7.80;78.00
49549;DHT22;35450;44.518;7.466;2022-11-20T01:17:41;7.80;77.50
49549;DHT22;35450;44.518;7.466;2022-11-20T01:20:45;7.80;77.20
49549;DHT22;35450;44.518;7.466;2022-11-20T01:23:49;7.70;77.80
49549;DHT22;35450;44.518;7.466;2022-11-20T01:26:54;7.70;79.30
49549;DHT22;35450;44.518;7.466;2022-11-20T01:29:58;7.70;80.10
49549;DHT22;35450;44.518;7.466;2022-11-20T01:33:02;7.80;79.60
49549;DHT22;35450;44.518;7.466;2022-11-20T01:36:06;7.80;77.90
49549;DHT22;35450;44.518;7.466;2022-11-20T01:42:16;7.90;77.90
49549;DHT22;35450;44.518;7.466;2022-11-20T01:49:39;7.70;78.50
49549;DHT22;35450;44.518;7.466;2022-11-20T01:52:46;7.70;79.30
49549;DHT22;35450;44.518;7.466;2022-11-20T01:55:55;7.80;79.80
49549;DHT22;35450;44.518;7.466;2022-11-20T01:59:02;7.70;78.70
49549;DHT22;35450;44.518;7.466;2022-11-20T02:02:07;7.60;77.60
49549;DHT22;35450;44.518;7.466;2022-11-20T02:08:25;7.60;77.00
49549;DHT22;35450;44.518;7.466;2022-11-20T02:11:30;7.60;77.20
49549;DHT22;35450;44.518;7.466;2022-11-20T02:14:34;7.60;77.40
49549;DHT22;35450;44.518;7.466;2022-11-20T02:17:38;7.70;77.50
49549;DHT22;35450;44.518;7.466;2022-11-20T02:20:44;7.70;77.40
49549;DHT22;35450;44.518;7.466;2022-11-20T02:24:21;7.70;78.00
49549;DHT22;35450;44.518;7.466;2022-11-20T02:27:26;7.50;78.10
49549;DHT22;35450;44.518;7.466;2022-11-20T02:30:30;7.40;78.20
49549;DHT22;35450;44.518;7.466;2022-11-20T02:33:34;7.40;78.20
49549;DHT22;35450;44.518;7.466;2022-11-20T02:36:39;7.40;77.50
49549;DHT22;35450;44.518;7.466;2022-11-20T02:39:46;7.40;77.70
49549;DHT22;35450;44.518;7.466;2022-11-20T02:42:55;7.40;77.60
49549;DHT22;35450;44.518;7.466;2022-11-20T02:45:59;7.40;77.70
49549;DHT22;35450;44.518;7.466;2022-11-20T02:49:04;7.40;77.30
49549;DHT22;35450;44.518;7.466;2022-11-20T02:52:08;7.40;77.20
49549;DHT22;35450;44.518;7.466;2022-11-20T02:55:12;7.50;77.10
49549;DHT22;35450;44.518;7.466;2022-11-20T02:58:16;7.50;77.00
49549;DHT22;35450;44.518;7.466;2022-11-20T03:01:21;7.40;77.20
49549;DHT22;35450;44.518;7.466;2022-11-20T03:04:25;7.50;77.40
49549;DHT22;35450;44.518;7.466;2022-11-20T03:07:29;7.40;77.50
49549;DHT22;35450;44.518;7.466;2022-11-20T03:10:33;7.40;77.60
49549;DHT22;35450;44.518;7.466;2022-11-20T03:13:37;7.40;77.90
49549;DHT22;35450;44.518;7.466;2022-11-20T03:16:41;7.50;77.70
49549;DHT22;35450;44.518;7.466;2022-11-20T03:19:45;7.50;77.80
49549;DHT22;35450;44.518;7.466;2022-11-20T03:22:49;7.40;77.90
49549;DHT22;35450;44.518;7.466;2022-11-20T03:25:53;7.40;78.20
49549;DHT22;35450;44.518;7.466;2022-11-20T03:29:00;7.40;78.30
49549;DHT22;35450;44.518;7.466;2022-11-20T03:32:04;7.40;78.30
49549;DHT22;35450;44.518;7.466;2022-11-20T03:35:08;7.40;78.20
49549;DHT22;35450;44.518;7.466;2022-11-20T03:38:12;7.60;78.60
49549;DHT22;35450;44.518;7.466;2022-11-20T03:41:19;7.50;79.00
49549;DHT22;35450;44.518;7.466;2022-11-20T03:44:23;7.50;78.70
49549;DHT22;35450;44.518;7.466;2022-11-20T03:47:27;7.40;78.40
49549;DHT22;35450;44.518;7.466;2022-11-20T03:50:32;7.40;78.90
49549;DHT22;35450;44.518;7.466;2022-11-20T03:53:36;7.40;78.80
49549;DHT22;35450;44.518;7.466;2022-11-20T03:56:39;7.40;78.80
49549;DHT22;35450;44.518;7.466;2022-11-20T03:59:43;7.40;78.60
49549;DHT22;35450;44.518;7.466;2022-11-20T04:02:48;7.40;78.80
49549;DHT22;35450;44.518;7.466;2022-11-20T04:05:52;7.50;78.40
49549;DHT22;35450;44.518;7.466;2022-11-20T04:08:56;7.50;78.20
49549;DHT22;35450;44.518;7.466;2022-11-20T04:12:01;7.40;79.20
49549;DHT22;35450;44.518;7.466;2022-11-20T04:15:05;7.40;79.20
49549;DHT22;35450;44.518;7.466;2022-11-20T04:18:09;7.40;80.00
49549;DHT22;35450;44.518;7.466;2022-11-20T04:21:13;7.40;79.50
49549;DHT22;35450;44.518;7.466;2022-11-20T04:24:17;7.30;79.90
49549;DHT22;35450;44.518;7.466;2022-11-20T04:27:20;7.30;80.60
49549;DHT22;35450;44.518;7.466;2022-11-20T04:30:25;7.30;80.60
49549;DHT22;35450;44.518;7.466;2022-11-20T04:33:29;7.30;81.00
49549;DHT22;35450;44.518;7.466;2022-11-20T04:36:33;7.30;81.10
49549;DHT22;35450;44.518;7.466;2022-11-20T04:39:38;7.10;81.30
49549;DHT22;35450;44.518;7.466;2022-11-20T04:42:42;7.00;81.90
49549;DHT22;35450;44.518;7.466;2022-11-20T04:45:51;7.00;82.20
49549;DHT22;35450;44.518;7.466;2022-11-20T04:48:55;7.00;82.60
49549;DHT22;35450;44.518;7.466;2022-11-20T04:51:59;7.10;82.60
49549;DHT22;35450;44.518;7.466;2022-11-20T04:55:03;7.10;82.70
49549;DHT22;35450;44.518;7.466;2022-11-20T04:58:07;7.20;82.90
49549;DHT22;35450;44.518;7.466;2022-11-20T05:01:17;7.20;82.80
49549;DHT22;35450;44.518;7.466;2022-11-20T05:04:20;7.30;82.70
49549;DHT22;35450;44.518;7.466;2022-11-20T05:07:25;7.30;82.70
49549;DHT22;35450;44.518;7.466;2022-11-20T05:10:29;7.40;82.60
49549;DHT22;35450;44.518;7.466;2022-11-20T05:13:33;7.40;82.70
49549;DHT22;35450;44.518;7.466;2022-11-20T05:16:37;7.30;82.60
49549;DHT22;35450;44.518;7.466;2022-11-20T05:19:41;7.40;82.60
49549;DHT22;35450;44.518;7.466;2022-11-20T05:22:45;7.40;82.60
49549;DHT22;35450;44.518;7.466;2022-11-20T05:25:54;7.30;82.60
49549;DHT22;35450;44.518;7.466;2022-11-20T05:28:59;7.30;82.50
49549;DHT22;35450;44.518;7.466;2022-11-20T05:32:03;7.30;82.80
49549;DHT22;35450;44.518;7.466;2022-11-20T05:35:07;7.30;82.30
49549;DHT22;35450;44.518;7.466;2022-11-20T05:38:11;7.20;82.50
49549;DHT22;35450;44.518;7.466;2022-11-20T05:41:17;7.20;82.40
49549;DHT22;35450;44.518;7.466;2022-11-20T05:44:21;7.30;81.90
49549;DHT22;35450;44.518;7.466;2022-11-20T05:47:26;7.20;81.70
49549;DHT22;35450;44.518;7.466;2022-11-20T05:50:31;7.20;81.70
49549;DHT22;35450;44.518;7.466;2022-11-20T05:53:35;7.10;81.10
49549;DHT22;35450;44.518;7.466;2022-11-20T05:56:40;7.20;81.50
49549;DHT22;35450;44.518;7.466;2022-11-20T05:59:44;7.30;81.00
49549;DHT22;35450;44.518;7.466;2022-11-20T06:02:47;7.30;80.80
49549;DHT22;35450;44.518;7.466;2022-11-20T06:05:51;7.40;80.60
49549;DHT22;35450;44.518;7.466;2022-11-20T06:08:56;7.40;80.50
49549;DHT22;35450;44.518;7.466;2022-11-20T06:11:59;7.40;80.50
49549;DHT22;35450;44.518;7.466;2022-11-20T06:15:05;7.30;80.20
49549;DHT22;35450;44.518;7.466;2022-11-20T06:18:09;7.40;80.00
49549;DHT22;35450;44.518;7.466;2022-11-20T06:21:18;7.40;79.70
49549;DHT22;35450;44.518;7.466;2022-11-20T06:24:22;7.40;80.10
49549;DHT22;35450;44.518;7.466;2022-11-20T06:27:27;7.40;80.40
49549;DHT22;35450;44.518;7.466;2022-11-20T06:30:30;7.30;80.00
49549;DHT22;35450;44.518;7.466;2022-11-20T06:33:35;7.40;79.40
49549;DHT22;35450;44.518;7.466;2022-11-20T06:36:38;7.40;79.50
49549;DHT22;35450;44.518;7.466;2022-11-20T06:39:42;7.40;79.50
49549;DHT22;35450;44.518;7.466;2022-11-20T06:42:46;7.30;79.40
49549;DHT22;35450;44.518;7.466;2022-11-20T06:45:54;7.40;79.20
49549;DHT22;35450;44.518;7.466;2022-11-20T06:48:58;7.30;79.10
49549;DHT22;35450;44.518;7.466;2022-11-20T06:52:03;7.40;79.20
49549;DHT22;35450;44.518;7.466;2022-11-20T06:55:07;7.40;78.80
49549;DHT22;35450;44.518;7.466;2022-11-20T06:58:12;7.40;78.60
49549;DHT22;35450;44.518;7.466;2022-11-20T07:01:15;7.60;78.60
49549;DHT22;35450;44.518;7.466;2022-11-20T07:04:20;7.60;78.60
49549;DHT22;35450;44.518;7.466;2022-11-20T07:07:24;7.60;78.90
49549;DHT22;35450;44.518;7.466;2022-11-20T07:10:31;7.60;79.20
49549;DHT22;35450;44.518;7.466;2022-11-20T07:13:35;7.60;79.10
49549;DHT22;35450;44.518;7.466;2022-11-20T07:16:39;7.60;79.10
49549;DHT22;35450;44.518;7.466;2022-11-20T07:19:43;7.60;79.50
49549;DHT22;35450;44.518;7.466;2022-11-20T07:22:56;7.70;80.50
49549;DHT22;35450;44.518;7.466;2022-11-20T07:26:08;7.60;79.90
49549;DHT22;35450;44.518;7.466;2022-11-20T07:29:12;7.70;79.40
49549;DHT22;35450;44.518;7.466;2022-11-20T07:32:16;7.70;79.50
49549;DHT22;35450;44.518;7.466;2022-11-20T07:35:21;7.80;80.30
49549;DHT22;35450;44.518;7.466;2022-11-20T07:38:25;7.80;80.60
49549;DHT22;35450;44.518;7.466;2022-11-20T07:41:29;7.90;81.50
49549;DHT22;35450;44.518;7.466;2022-11-20T07:44:33;7.90;82.20
49549;DHT22;35450;44.518;7.466;2022-11-20T07:47:37;7.90;81.50
49549;DHT22;35450;44.518;7.466;2022-11-20T07:50:41;7.90;81.20
49549;DHT22;35450;44.518;7.466;2022-11-20T07:53:45;7.90;81.50
49549;DHT22;35450;44.518;7.466;2022-11-20T07:56:49;7.90;82.10
49549;DHT22;35450;44.518;7.466;2022-11-20T07:59:53;8.00;82.20
49549;DHT22;35450;44.518;7.466;2022-11-20T08:02:57;8.00;82.10
49549;DHT22;35450;44.518;7.466;2022-11-20T08:06:01;8.10;82.50
49549;DHT22;35450;44.518;7.466;2022-11-20T08:09:06;8.10;82.60
49549;DHT22;35450;44.518;7.466;2022-11-20T08:12:17;8.20;83.20
49549;DHT22;35450;44.518;7.466;2022-11-20T08:15:40;8.20;83.50
49549;DHT22;35450;44.518;7.466;2022-11-20T08:18:44;8.30;84.20
49549;DHT22;35450;44.518;7.466;2022-11-20T08:21:48;8.30;84.50
49549;DHT22;35450;44.518;7.466;2022-11-20T08:24:52;8.40;84.70
49549;DHT22;35450;44.518;7.466;2022-11-20T08:28:04;8.40;84.40
49549;DHT22;35450;44.518;7.466;2022-11-20T08:31:08;8.50;84.60
49549;DHT22;35450;44.518;7.466;2022-11-20T08:34:13;8.50;83.00
49549;DHT22;35450;44.518;7.466;2022-11-20T08:37:17;8.50;76.90
49549;DHT22;35450;44.518;7.466;2022-11-20T08:40:21;8.60;76.10
49549;DHT22;35450;44.518;7.466;2022-11-20T08:43:25;8.70;76.30
49549;DHT22;35450;44.518;7.466;2022-11-20T08:46:34;8.70;76.40
49549;DHT22;35450;44.518;7.466;2022-11-20T08:49:40;8.80;77.90
49549;DHT22;35450;44.518;7.466;2022-11-20T08:52:44;8.80;79.70
49549;DHT22;35450;44.518;7.466;2022-11-20T08:55:48;8.80;80.60
49549;DHT22;35450;44.518;7.466;2022-11-20T08:58:52;8.90;80.70
49549;DHT22;35450;44.518;7.466;2022-11-20T09:01:56;8.90;80.50
49549;DHT22;35450;44.518;7.466;2022-11-20T09:05:00;9.00;78.70
49549;DHT22;35450;44.518;7.466;2022-11-20T09:08:05;9.10;77.80
49549;DHT22;35450;44.518;7.466;2022-11-20T09:11:09;9.10;76.90
49549;DHT22;35450;44.518;7.466;2022-11-20T09:14:14;9.20;76.10
49549;DHT22;35450;44.518;7.466;2022-11-20T09:17:18;9.20;75.80
49549;DHT22;35450;44.518;7.466;2022-11-20T09:20:22;9.20;75.70
49549;DHT22;35450;44.518;7.466;2022-11-20T09:23:26;9.30;75.80
49549;DHT22;35450;44.518;7.466;2022-11-20T09:26:30;9.30;75.90
49549;DHT22;35450;44.518;7.466;2022-11-20T09:29:34;9.40;76.10
49549;DHT22;35450;44.518;7.466;2022-11-20T09:32:42;9.40;75.80
49549;DHT22;35450;44.518;7.466;2022-11-20T09:35:46;9.50;74.90
49549;DHT22;35450;44.518;7.466;2022-11-20T09:38:50;9.50;74.30
49549;DHT22;35450;44.518;7.466;2022-11-20T09:52:00;9.60;73.70
49549;DHT22;35450;44.518;7.466;2022-11-20T09:55:06;9.70;73.80
49549;DHT22;35450;44.518;7.466;2022-11-20T09:58:24;9.80;74.50
49549;DHT22;35450;44.518;7.466;2022-11-20T10:01:32;9.80;74.50
49549;DHT22;35450;44.518;7.466;2022-11-20T10:04:43;9.80;74.40
49549;DHT22;35450;44.518;7.466;2022-11-20T10:11:20;10.00;74.20
49549;DHT22;35450;44.518;7.466;2022-11-20T10:31:02;10.10;79.30
49549;DHT22;35450;44.518;7.466;2022-11-20T10:34:31;10.00;79.10
49549;DHT22;35450;44.518;7.466;2022-11-20T10:37:42;10.10;77.00
49549;DHT22;35450;44.518;7.466;2022-11-20T10:40:51;10.10;76.00
49549;DHT22;35450;44.518;7.466;2022-11-20T10:44:14;10.20;76.50
49549;DHT22;35450;44.518;7.466;2022-11-20T10:47:38;10.20;77.10
49549;DHT22;35450;44.518;7.466;2022-11-20T10:54:39;10.30;72.70
49549;DHT22;35450;44.518;7.466;2022-11-20T10:57:58;10.30;71.70
49549;DHT22;35450;44.518;7.466;2022-11-20T11:01:26;10.30;70.50
49549;DHT22;35450;44.518;7.466;2022-11-20T11:04:54;10.40;71.10
49549;DHT22;35450;44.518;7.466;2022-11-20T11:07:59;10.40;71.60
49549;DHT22;35450;44.518;7.466;2022-11-20T11:14:15;10.40;69.60
49549;DHT22;35450;44.518;7.466;2022-11-20T11:17:29;10.40;70.20
49549;DHT22;35450;44.518;7.466;2022-11-20T11:20:34;10.40;71.20
49549;DHT22;35450;44.518;7.466;2022-11-20T11:23:40;10.50;72.30
49549;DHT22;35450;44.518;7.466;2022-11-20T11:26:56;10.60;72.40
49549;DHT22;35450;44.518;7.466;2022-11-20T11:30:19;10.60;72.90
49549;DHT22;35450;44.518;7.466;2022-11-20T11:33:26;10.70;70.20
49549;DHT22;35450;44.518;7.466;2022-11-20T11:36:30;10.70;73.70
49549;DHT22;35450;44.518;7.466;2022-11-20T11:39:35;10.70;73.90
49549;DHT22;35450;44.518;7.466;2022-11-20T11:42:50;10.80;73.10
49549;DHT22;35450;44.518;7.466;2022-11-20T11:45:56;10.80;72.20
49549;DHT22;35450;44.518;7.466;2022-11-20T11:49:01;10.80;70.40
49549;DHT22;35450;44.518;7.466;2022-11-20T11:52:13;10.80;69.20
49549;DHT22;35450;44.518;7.466;2022-11-20T12:01:44;10.80;66.90
49549;DHT22;35450;44.518;7.466;2022-11-20T12:04:54;10.90;66.00
49549;DHT22;35450;44.518;7.466;2022-11-20T12:08:21;10.90;64.40
49549;DHT22;35450;44.518;7.466;2022-11-20T12:11:46;10.90;65.40
49549;DHT22;35450;44.518;7.466;2022-11-20T12:14:54;11.00;64.50
49549;DHT22;35450;44.518;7.466;2022-11-20T12:18:00;10.90;64.30
49549;DHT22;35450;44.518;7.466;2022-11-20T12:24:49;10.90;64.80
49549;DHT22;35450;44.518;7.466;2022-11-20T12:31:42;11.00;64.70
49549;DHT22;35450;44.518;7.466;2022-11-20T12:42:01;11.10;63.90
49549;DHT22;35450;44.518;7.466;2022-11-20T12:49:31;11.10;65.20
49549;DHT22;35450;44.518;7.466;2022-11-20T12:56:33;11.20;64.40
49549;DHT22;35450;44.518;7.466;2022-11-20T13:03:34;11.20;64.90
49549;DHT22;35450;44.518;7.466;2022-11-20T13:06:40;11.20;65.30
49549;DHT22;35450;44.518;7.466;2022-11-20T13:09:49;11.20;64.70
49549;DHT22;35450;44.518;7.466;2022-11-20T13:13:02;11.20;63.80
49549;DHT22;35450;44.518;7.466;2022-11-20T13:16:17;11.30;64.00
49549;DHT22;35450;44.518;7.466;2022-11-20T13:19:24;11.30;63.80
49549;DHT22;35450;44.518;7.466;2022-11-20T13:23:22;11.30;63.80
49549;DHT22;35450;44.518;7.466;2022-11-20T13:26:13;11.30;63.10
49549;DHT22;35450;44.518;7.466;2022-11-20T13:29:18;11.40;63.30
49549;DHT22;35450;44.518;7.466;2022-11-20T13:32:23;11.40;62.40
49549;DHT22;35450;44.518;7.466;2022-11-20T13:35:36;11.40;62.70
49549;DHT22;35450;44.518;7.466;2022-11-20T13:38:48;11.40;63.10
49549;DHT22;35450;44.518;7.466;2022-11-20T13:41:59;11.40;63.50
49549;DHT22;35450;44.518;7.466;2022-11-20T13:45:22;11.40;63.20
49549;DHT22;35450;44.518;7.466;2022-11-20T13:48:34;11.50;62.70
49549;DHT22;35450;44.518;7.466;2022-11-20T13:51:47;11.50;63.20
49549;DHT22;35450;44.518;7.466;2022-11-20T13:58:36;11.60;61.70
49549;DHT22;35450;44.518;7.466;2022-11-20T14:01:45;11.60;60.30
49549;DHT22;35450;44.518;7.466;2022-11-20T14:04:52;11.60;61.20
49549;DHT22;35450;44.518;7.466;2022-11-20T14:07:57;11.70;62.50
49549;DHT22;35450;44.518;7.466;2022-11-20T14:11:22;11.70;60.90
49549;DHT22;35450;44.518;7.466;2022-11-20T14:14:30;11.70;60.30
49549;DHT22;35450;44.518;7.466;2022-11-20T14:17:35;11.80;60.10
49549;DHT22;35450;44.518;7.466;2022-11-20T14:20:41;11.80;60.60
49549;DHT22;35450;44.518;7.466;2022-11-20T14:23:45;11.80;61.20
49549;DHT22;35450;44.518;7.466;2022-11-20T14:26:50;11.90;61.80
49549;DHT22;35450;44.518;7.466;2022-11-20T14:29:54;11.90;61.80
49549;DHT22;35450;44.518;7.466;2022-11-20T14:33:02;11.90;61.90
49549;DHT22;35450;44.518;7.466;2022-11-20T14:36:17;11.90;62.30
49549;DHT22;35450;44.518;7.466;2022-11-20T14:39:25;11.90;62.00
49549;DHT22;35450;44.518;7.466;2022-11-20T14:42:30;11.90;61.70
49549;DHT22;35450;44.518;7.466;2022-11-20T14:45:34;11.90;61.80
49549;DHT22;35450;44.518;7.466;2022-11-20T14:48:44;11.90;62.20
49549;DHT22;35450;44.518;7.466;2022-11-20T14:52:03;11.90;62.40
49549;DHT22;35450;44.518;7.466;2022-11-20T14:55:14;11.90;62.30
49549;DHT22;35450;44.518;7.466;2022-11-20T14:58:30;11.90;62.40
49549;DHT22;35450;44.518;7.466;2022-11-20T15:01:35;11.90;62.20
49549;DHT22;35450;44.518;7.466;2022-11-20T15:04:50;11.90;61.90
49549;DHT22;35450;44.518;7.466;2022-11-20T15:08:09;11.90;63.40
49549;DHT22;35450;44.518;7.466;2022-11-20T15:11:32;11.90;66.60
49549;DHT22;35450;44.518;7.466;2022-11-20T15:14:37;11.80;68.50
49549;DHT22;35450;44.518;7.466;2022-11-20T15:17:41;11.60;68.90
49549;DHT22;35450;44.518;7.466;2022-11-20T15:20:46;11.40;69.50
49549;DHT22;35450;44.518;7.466;2022-11-20T15:23:50;11.30;70.50
49549;DHT22;35450;44.518;7.466;2022-11-20T15:26:54;11.20;70.80
49549;DHT22;35450;44.518;7.466;2022-11-20T15:29:58;11.10;70.50
49549;DHT22;35450;44.518;7.466;2022-11-20T15:33:02;10.90;70.00
49549;DHT22;35450;44.518;7.466;2022-11-20T15:36:06;10.70;69.90
49549;DHT22;35450;44.518;7.466;2022-11-20T15:39:10;10.70;69.50
49549;DHT22;35450;44.518;7.466;2022-11-20T15:42:15;10.60;69.60
49549;DHT22;35450;44.518;7.466;2022-11-20T15:45:19;10.60;69.80
49549;DHT22;35450;44.518;7.466;2022-11-20T15:48:36;10.60;70.30
49549;DHT22;35450;44.518;7.466;2022-11-20T15:51:43;10.50;69.70
49549;DHT22;35450;44.518;7.466;2022-11-20T15:54:47;10.30;69.60
49549;DHT22;35450;44.518;7.466;2022-11-20T15:57:51;10.30;69.40
49549;DHT22;35450;44.518;7.466;2022-11-20T16:00:55;10.20;69.50
49549;DHT22;35450;44.518;7.466;2022-11-20T16:04:00;10.30;70.00
49549;DHT22;35450;44.518;7.466;2022-11-20T16:07:04;10.20;70.00
49549;DHT22;35450;44.518;7.466;2022-11-20T16:10:08;10.00;69.60
49549;DHT22;35450;44.518;7.466;2022-11-20T16:13:14;10.00;69.50
49549;DHT22;35450;44.518;7.466;2022-11-20T16:16:37;10.00;69.90
49549;DHT22;35450;44.518;7.466;2022-11-20T16:19:43;9.90;69.80
49549;DHT22;35450;44.518;7.466;2022-11-20T16:22:46;9.80;70.00
49549;DHT22;35450;44.518;7.466;2022-11-20T16:25:50;9.80;69.90
49549;DHT22;35450;44.518;7.466;2022-11-20T16:28:55;9.80;70.00
49549;DHT22;35450;44.518;7.466;2022-11-20T16:31:59;9.80;70.40
49549;DHT22;35450;44.518;7.466;2022-11-20T16:35:03;9.70;69.90
49549;DHT22;35450;44.518;7.466;2022-11-20T16:38:07;9.70;69.90
49549;DHT22;35450;44.518;7.466;2022-11-20T16:41:11;9.70;70.10
49549;DHT22;35450;44.518;7.466;2022-11-20T16:44:18;9.70;70.10
49549;DHT22;35450;44.518;7.466;2022-11-20T16:47:22;9.70;70.20
49549;DHT22;35450;44.518;7.466;2022-11-20T16:50:26;9.50;70.30
49549;DHT22;35450;44.518;7.466;2022-11-20T16:53:32;9.50;70.50
49549;DHT22;35450;44.518;7.466;2022-11-20T16:56:36;9.40;70.60
49549;DHT22;35450;44.518;7.466;2022-11-20T16:59:40;9.50;70.40
49549;DHT22;35450;44.518;7.466;2022-11-20T17:02:45;9.50;70.60
49549;DHT22;35450;44.518;7.466;2022-11-20T17:05:49;9.40;71.00
49549;DHT22;35450;44.518;7.466;2022-11-20T17:08:54;9.40;70.50
49549;DHT22;35450;44.518;7.466;2022-11-20T17:11:58;9.30;70.60
49549;DHT22;35450;44.518;7.466;2022-11-20T17:15:02;9.30;70.70
49549;DHT22;35450;44.518;7.466;2022-11-20T17:18:06;9.30;71.00
49549;DHT22;35450;44.518;7.466;2022-11-20T17:21:11;9.30;70.80
49549;DHT22;35450;44.518;7.466;2022-11-20T17:24:16;9.30;71.10
49549;DHT22;35450;44.518;7.466;2022-11-20T17:27:19;9.00;71.70
49549;DHT22;35450;44.518;7.466;2022-11-20T17:30:23;9.10;71.90
49549;DHT22;35450;44.518;7.466;2022-11-20T17:33:28;9.10;71.70
49549;DHT22;35450;44.518;7.466;2022-11-20T17:36:32;9.10;71.30
49549;DHT22;35450;44.518;7.466;2022-11-20T17:39:37;9.10;71.40
49549;DHT22;35450;44.518;7.466;2022-11-20T17:42:42;9.10;71.40
49549;DHT22;35450;44.518;7.466;2022-11-20T17:45:46;9.10;71.30
49549;DHT22;35450;44.518;7.466;2022-11-20T17:48:50;9.00;71.40
49549;DHT22;35450;44.518;7.466;2022-11-20T17:51:54;9.00;71.60
49549;DHT22;35450;44.518;7.466;2022-11-20T17:54:58;9.00;71.50
49549;DHT22;35450;44.518;7.466;2022-11-20T17:58:02;9.00;71.90
49549;DHT22;35450;44.518;7.466;2022-11-20T18:01:09;9.00;71.70
49549;DHT22;35450;44.518;7.466;2022-11-20T18:04:13;9.00;72.10
49549;DHT22;35450;44.518;7.466;2022-11-20T18:07:17;9.00;72.00
49549;DHT22;35450;44.518;7.466;2022-11-20T18:10:21;9.00;72.30
49549;DHT22;35450;44.518;7.466;2022-11-20T18:13:24;8.90;72.80
49549;DHT22;35450;44.518;7.466;2022-11-20T18:16:54;8.90;72.80
49549;DHT22;35450;44.518;7.466;2022-11-20T18:19:58;8.80;74.30
49549;DHT22;35450;44.518;7.466;2022-11-20T18:23:03;8.90;75.10
49549;DHT22;35450;44.518;7.466;2022-11-20T18:26:07;8.80;75.00
49549;DHT22;35450;44.518;7.466;2022-11-20T18:29:12;8.70;74.20
49549;DHT22;35450;44.518;7.466;2022-11-20T18:32:17;8.80;73.90
49549;DHT22;35450;44.518;7.466;2022-11-20T18:35:21;8.80;73.50
49549;DHT22;35450;44.518;7.466;2022-11-20T18:38:25;8.80;73.80
49549;DHT22;35450;44.518;7.466;2022-11-20T18:41:30;8.80;73.40
49549;DHT22;35450;44.518;7.466;2022-11-20T18:44:52;8.70;73.40
49549;DHT22;35450;44.518;7.466;2022-11-20T18:47:57;8.70;74.20
49549;DHT22;35450;44.518;7.466;2022-11-20T18:51:05;8.70;72.90
49549;DHT22;35450;44.518;7.466;2022-11-20T18:54:10;8.70;72.70
49549;DHT22;35450;44.518;7.466;2022-11-20T18:57:22;8.70;73.00
49549;DHT22;35450;44.518;7.466;2022-11-20T19:00:26;8.40;75.00
49549;DHT22;35450;44.518;7.466;2022-11-20T19:03:30;8.50;74.80
49549;DHT22;35450;44.518;7.466;2022-11-20T19:06:35;8.50;75.30
49549;DHT22;35450;44.518;7.466;2022-11-20T19:09:40;8.60;75.00
49549;DHT22;35450;44.518;7.466;2022-11-20T19:12:44;8.60;74.20
49549;DHT22;35450;44.518;7.466;2022-11-20T19:15:48;8.70;74.30
49549;DHT22;35450;44.518;7.466;2022-11-20T19:18:52;8.70;75.10
49549;DHT22;35450;44.518;7.466;2022-11-20T19:21:56;8.50;74.70
49549;DHT22;35450;44.518;7.466;2022-11-20T19:25:00;8.50;74.70
49549;DHT22;35450;44.518;7.466;2022-11-20T19:28:04;8.50;74.70
49549;DHT22;35450;44.518;7.466;2022-11-20T19:31:11;8.40;73.80
49549;DHT22;35450;44.518;7.466;2022-11-20T19:34:19;8.40;74.20
49549;DHT22;35450;44.518;7.466;2022-11-20T19:37:23;8.50;73.80
49549;DHT22;35450;44.518;7.466;2022-11-20T19:40:28;8.50;73.60
49549;DHT22;35450;44.518;7.466;2022-11-20T19:43:32;8.50;73.90
49549;DHT22;35450;44.518;7.466;2022-11-20T19:46:37;8.50;73.40
49549;DHT22;35450;44.518;7.466;2022-11-20T19:49:42;8.50;73.20
49549;DHT22;35450;44.518;7.466;2022-11-20T19:52:46;8.50;73.00
49549;DHT22;35450;44.518;7.466;2022-11-20T19:55:57;8.50;73.30
49549;DHT22;35450;44.518;7.466;2022-11-20T19:59:01;8.50;73.30
49549;DHT22;35450;44.518;7.466;2022-11-20T20:02:05;8.50;73.20
49549;DHT22;35450;44.518;7.466;2022-11-20T20:05:09;8.50;73.20
49549;DHT22;35450;44.518;7.466;2022-11-20T20:08:13;8.50;73.30
49549;DHT22;35450;44.518;7.466;2022-11-20T20:11:19;8.50;73.30
49549;DHT22;35450;44.518;7.466;2022-11-20T20:14:24;8.60;73.80
49549;DHT22;35450;44.518;7.466;2022-11-20T20:17:27;8.60;73.00
49549;DHT22;35450;44.518;7.466;2022-11-20T20:20:31;8.60;72.80
49549;DHT22;35450;44.518;7.466;2022-11-20T20:23:36;8.60;72.60
49549;DHT22;35450;44.518;7.466;2022-11-20T20:26:40;8.60;72.80
49549;DHT22;35450;44.518;7.466;2022-11-20T20:29:44;8.60;72.50
49549;DHT22;35450;44.518;7.466;2022-11-20T20:32:48;8.70;71.50
49549;DHT22;35450;44.518;7.466;2022-11-20T20:35:52;8.70;72.00
49549;DHT22;35450;44.518;7.466;2022-11-20T20:38:57;8.70;72.30
49549;DHT22;35450;44.518;7.466;2022-11-20T20:42:07;8.70;72.80
49549;DHT22;35450;44.518;7.466;2022-11-20T20:45:11;8.70;72.60
49549;DHT22;35450;44.518;7.466;2022-11-20T20:48:16;8.70;72.50
49549;DHT22;35450;44.518;7.466;2022-11-20T20:51:21;8.50;73.60
49549;DHT22;35450;44.518;7.466;2022-11-20T20:54:25;8.50;74.10
49549;DHT22;35450;44.518;7.466;2022-11-20T20:57:29;8.40;73.90
49549;DHT22;35450;44.518;7.466;2022-11-20T21:00:33;8.40;72.50
49549;DHT22;35450;44.518;7.466;2022-11-20T21:03:38;8.50;72.80
49549;DHT22;35450;44.518;7.466;2022-11-20T21:06:42;8.50;73.20
49549;DHT22;35450;44.518;7.466;2022-11-20T21:09:46;8.40;73.50
49549;DHT22;35450;44.518;7.466;2022-11-20T21:12:50;8.40;73.10
49549;DHT22;35450;44.518;7.466;2022-11-20T21:15:54;8.40;73.80